首页
METAR-TAF:

METAR-TAF

机场 :

Naval Station Mayport (Adm. David L. McDonald Field)

Mayport, 佛罗里达州, 美国

纬度: 30-23-45N, 经度: 081-25-21W, 海拔: 5米

当前天气观测

该预报发布于27分钟前的12:52 UTC
风速5节,风向南转南东
温度 27°C
湿度 84%
气压 1016 hPa
能見度: 16.1公里
少量云层高于9000英尺

METAR: KNRB 051252Z 16005KT 10SM FEW090 27/24 A3001 RMK AO2 SLP160 T02670244

时间: 09:19 (13:19 UTC)

预报

预报有效从05日的 07点(UTC)到 06日的 07点(UTC)
风速6节,风向
能见度10公里或以上
散云层高于3000英尺
散云层高于25000英尺
从 05日的 1900点(UTC)
风速10节,风向东南
能见度10公里或以上
散云层高于4000英尺, 积雨云.
散云层高于10000英尺
多云层高于25000英尺
附近有雷暴
短暂存在
从 05日的 20点(UTC)到 06日的 02点(UTC)
风速25节,风向多变,有时为35节阵风
能見度: 4000
散云层高于2000英尺, 积雨云.
多云层高于4000英尺
阴天层高于10000英尺
从 06日的 0300点(UTC)
风速5节,风向多变
能見度: 0509
少量云层高于4000英尺
散云层高于10000英尺
散云层高于25000英尺

TAF: KNRB 0507/0607 18006KT 9999 SCT030 SCT250 QNH2990INS FM051900 14010KT 9999 VCTS SCT040CB SCT100 BKN250 QNH2995INS TEMPO 0520/0602 VRB25G35KT 4000 SCT020CB BKN040 OVC100 FM060300 VRB05KT 9999 FEW040 SCT100 SCT250 QNH2996INS AUTOMATED SENSOR METWATCH 0507 TIL 0509 T25/0510Z T33/0519Z FN00085

超过4000个机场的气象观测和天气预报(METAR&TAF报告)。

可查询的气象台以黄色和红色小点在地图上表示。

将鼠标移到小点上方,可查看气象台名称。

然后点击查看天气观测和预报。

如需切换地图:点击带黑十字的绿色按钮放大地图;点击带横线的绿色按钮缩小地图;或者点击绿色箭头查看邻近地区的地图。


METAR-TAF: